Time;durP1;ratioP1;P1;durP2;ratioP2;P2;SDS_P1;SDS_P2;PMS_P1;PMS_P2;Temp;Humidity;BMP_temperature;BMP_pressure;BME280_temperature;BME280_humidity;BME280_pressure;Samples;Min_cycle;Max_cycle;Signal;HPM_P1;HPM_P2
2022/12/17 13:06:08;;;;;;;;;;;26.90;24.30;;;;;;5108873;28;19920;-65
2022/12/17 13:08:34;;;;;;;;;;;26.70;24.40;;;;;;5108849;28;19923;-65
2022/12/17 13:11:08;;;;;;;;;;;26.40;24.50;;;;;;5108725;28;20022;-65
2022/12/17 13:13:38;;;;;;;;;;;26.30;24.60;;;;;;5108730;28;20341;-69
2022/12/17 13:16:19;;;;;;;;;;;26.10;24.80;;;;;;5108872;28;20188;-65
2022/12/17 13:18:44;;;;;;;;;;;25.90;24.90;;;;;;5108540;28;19928;-65
2022/12/17 13:23:56;;;;;;;;;;;25.40;25.20;;;;;;5121950;27;2026252;-65
2022/12/17 13:26:23;;;;;;;;;;;25.20;25.40;;;;;;5174169;27;19967;-65
2022/12/17 13:31:55;;;;;;;;;;;24.70;25.70;;;;;;5128214;27;1848372;-65
2022/12/17 13:34:40;;;;;;;;;;;24.40;25.90;;;;;;5174360;27;19918;-65
2022/12/17 13:37:26;;;;;;;;;;;24.20;26.20;;;;;;5174167;27;20002;-65
2022/12/17 13:42:35;;;;;;;;;;;23.80;26.50;;;;;;5110127;27;19912;-65
2022/12/17 13:45:01;;;;;;;;;;;23.60;26.60;;;;;;5108241;28;20007;-65
2022/12/17 13:47:29;;;;;;;;;;;23.40;26.70;;;;;;5108627;28;20007;-69
2022/12/17 13:49:56;;;;;;;;;;;23.30;26.90;;;;;;5109129;28;20019;-65
2022/12/17 13:52:24;;;;;;;;;;;23.10;27.00;;;;;;5109017;28;20283;-65
2022/12/17 13:54:49;;;;;;;;;;;22.90;27.10;;;;;;5109097;28;19920;-69
2022/12/17 13:57:16;;;;;;;;;;;22.80;27.30;;;;;;5108877;28;20265;-65
2022/12/17 13:59:50;;;;;;;;;;;22.60;27.30;;;;;;5092005;28;19920;-65
2022/12/17 14:02:24;;;;;;;;;;;22.50;27.50;;;;;;5108418;28;19970;-65
2022/12/17 14:04:50;;;;;;;;;;;22.40;27.70;;;;;;5108617;28;19990;-68
2022/12/17 14:07:16;;;;;;;;;;;22.30;27.80;;;;;;5108781;28;20327;-67
2022/12/17 14:09:42;;;;;;;;;;;22.00;27.90;;;;;;5108848;28;20018;-67
2022/12/17 14:12:26;;;;;;;;;;;21.90;28.00;;;;;;5108431;28;20367;-65
2022/12/17 14:14:56;;;;;;;;;;;21.70;28.20;;;;;;5108611;28;19998;-65
2022/12/17 14:17:22;;;;;;;;;;;21.50;28.40;;;;;;5108572;28;19927;-65
2022/12/17 14:19:51;;;;;;;;;;;21.40;28.60;;;;;;5108620;28;19927;-68
2022/12/17 14:22:20;;;;;;;;;;;21.20;28.70;;;;;;5109358;28;19924;-64
2022/12/17 14:24:45;;;;;;;;;;;21.10;28.80;;;;;;5109494;28;20121;-69
2022/12/17 14:27:30;;;;;;;;;;;20.90;28.90;;;;;;5108083;28;20314;-65
2022/12/17 14:29:56;;;;;;;;;;;20.80;29.10;;;;;;5108175;28;19981;-65
2022/12/17 14:32:24;;;;;;;;;;;20.60;29.20;;;;;;5108060;28;19955;-65
2022/12/17 14:34:49;;;;;;;;;;;20.50;29.30;;;;;;5109267;28;19920;-65
2022/12/17 14:37:16;;;;;;;;;;;20.30;29.40;;;;;;5108253;28;19927;-65
2022/12/17 14:39:44;;;;;;;;;;;20.20;29.50;;;;;;5109256;28;19927;-65
2022/12/17 14:42:31;;;;;;;;;;;20.10;30.20;;;;;;5126589;28;19923;-64
2022/12/17 14:44:59;;;;;;;;;;;19.90;29.80;;;;;;5111566;28;19962;-65
2022/12/17 14:47:26;;;;;;;;;;;19.80;29.90;;;;;;5111242;28;20100;-65
2022/12/17 14:49:54;;;;;;;;;;;19.70;30.00;;;;;;5111360;28;20410;-65
2022/12/17 14:52:24;;;;;;;;;;;19.50;30.10;;;;;;5106290;28;20010;-65
2022/12/17 14:54:50;;;;;;;;;;;19.40;30.20;;;;;;5097353;28;19923;-69
2022/12/17 14:57:19;;;;;;;;;;;19.30;30.40;;;;;;5097568;28;19965;-65
2022/12/17 14:59:44;;;;;;;;;;;19.30;30.60;;;;;;5115713;28;20286;-65
2022/12/17 15:04:54;;;;;;;;;;;19.10;30.80;;;;;;5127205;27;1873378;-65
2022/12/17 15:07:23;;;;;;;;;;;19.00;30.90;;;;;;5174349;27;20370;-65
2022/12/17 15:09:48;;;;;;;;;;;18.90;31.00;;;;;;5173345;27;19918;-65
2022/12/17 15:12:14;;;;;;;;;;;18.80;31.10;;;;;;5153778;27;19925;-65
2022/12/17 15:14:39;;;;;;;;;;;18.70;31.20;;;;;;5153323;27;19927;-65
2022/12/17 15:17:05;;;;;;;;;;;18.70;31.30;;;;;;5153444;27;19922;-68
2022/12/17 15:19:30;;;;;;;;;;;18.60;31.30;;;;;;5153314;27;19923;-65
2022/12/17 15:21:56;;;;;;;;;;;18.50;31.40;;;;;;5155519;27;19963;-65
2022/12/17 15:24:21;;;;;;;;;;;18.40;31.40;;;;;;5189450;27;19949;-65
2022/12/17 15:26:47;;;;;;;;;;;18.40;31.50;;;;;;5153240;27;19968;-65
2022/12/17 15:29:13;;;;;;;;;;;18.30;31.60;;;;;;5153137;27;20006;-65
2022/12/17 15:31:38;;;;;;;;;;;18.30;31.70;;;;;;5153176;27;19919;-65
2022/12/17 15:34:04;;;;;;;;;;;18.20;32.00;;;;;;5153138;27;19918;-65
2022/12/17 15:36:31;;;;;;;;;;;18.10;32.00;;;;;;5153453;27;19963;-65
2022/12/17 15:38:57;;;;;;;;;;;18.00;32.10;;;;;;5152896;27;20374;-65
2022/12/17 15:44:08;;;;;;;;;;;18.20;32.20;;;;;;5152701;27;19922;-69
2022/12/17 15:46:34;;;;;;;;;;;18.80;31.70;;;;;;5153175;27;20283;-65
2022/12/17 15:48:59;;;;;;;;;;;19.50;30.80;;;;;;5152757;27;20340;-65
2022/12/17 15:51:25;;;;;;;;;;;20.30;29.90;;;;;;5171303;27;19919;-65
2022/12/17 15:53:50;;;;;;;;;;;21.30;29.10;;;;;;5171397;27;19919;-65
2022/12/17 15:56:18;;;;;;;;;;;22.10;28.20;;;;;;5152096;27;19992;-65
2022/12/17 15:58:44;;;;;;;;;;;22.90;27.40;;;;;;5182154;27;19926;-66
2022/12/17 16:01:09;;;;;;;;;;;23.70;26.80;;;;;;5173633;27;19918;-66
2022/12/17 16:03:35;;;;;;;;;;;24.30;26.20;;;;;;5172243;27;20000;-66
2022/12/17 16:06:00;;;;;;;;;;;24.80;25.70;;;;;;5191484;27;19918;-66
2022/12/17 16:08:26;;;;;;;;;;;25.30;25.40;;;;;;5173328;27;19931;-66
2022/12/17 16:10:51;;;;;;;;;;;25.60;25.10;;;;;;5173232;27;19918;-66
2022/12/17 16:13:17;;;;;;;;;;;26.00;24.90;;;;;;5192153;27;20018;-66
2022/12/17 16:15:42;;;;;;;;;;;26.30;24.70;;;;;;5180873;27;19925;-66
2022/12/17 16:18:08;;;;;;;;;;;26.50;24.60;;;;;;5159506;27;20025;-66
2022/12/17 16:20:33;;;;;;;;;;;26.70;24.40;;;;;;5177842;27;19919;-66
2022/12/17 16:23:00;;;;;;;;;;;26.90;24.30;;;;;;5159095;27;19922;-66
2022/12/17 16:25:25;;;;;;;;;;;27.10;24.20;;;;;;5159138;27;20374;-66
2022/12/17 16:27:51;;;;;;;;;;;27.20;24.20;;;;;;5159013;27;19971;-70
2022/12/17 16:30:16;;;;;;;;;;;27.10;24.10;;;;;;5159108;27;19964;-66
2022/12/17 16:32:42;;;;;;;;;;;27.10;24.10;;;;;;5177536;27;19925;-71
2022/12/17 16:35:08;;;;;;;;;;;27.00;24.20;;;;;;5177595;27;19942;-66
2022/12/17 16:37:33;;;;;;;;;;;26.80;24.20;;;;;;5158987;27;19918;-66
2022/12/17 16:39:59;;;;;;;;;;;26.60;24.30;;;;;;5158778;27;19987;-67
2022/12/17 16:42:24;;;;;;;;;;;26.50;24.50;;;;;;5158709;27;19919;-66
2022/12/17 16:44:50;;;;;;;;;;;26.30;24.60;;;;;;5177416;27;19923;-66
2022/12/17 16:47:15;;;;;;;;;;;26.00;24.70;;;;;;5158868;27;20282;-66
2022/12/17 16:49:41;;;;;;;;;;;25.80;24.90;;;;;;5158659;27;19962;-70
2022/12/17 16:52:06;;;;;;;;;;;25.60;25.00;;;;;;5158498;27;19933;-67
2022/12/17 16:54:32;;;;;;;;;;;25.30;25.10;;;;;;5158750;27;19925;-66
2022/12/17 16:57:00;;;;;;;;;;;25.20;25.30;;;;;;5177000;27;19919;-66
2022/12/17 16:59:26;;;;;;;;;;;24.90;25.40;;;;;;5177097;27;19923;-66
2022/12/17 17:01:52;;;;;;;;;;;24.70;25.60;;;;;;5158267;27;19919;-66
2022/12/17 17:04:18;;;;;;;;;;;24.50;25.80;;;;;;5176692;27;19985;-66
2022/12/17 17:06:45;;;;;;;;;;;24.30;26.00;;;;;;5176925;27;19978;-66
2022/12/17 17:09:11;;;;;;;;;;;24.10;26.10;;;;;;5158377;27;19927;-66
2022/12/17 17:11:37;;;;;;;;;;;23.90;26.20;;;;;;5158184;27;20532;-70
2022/12/17 17:14:05;;;;;;;;;;;23.70;26.40;;;;;;5158493;27;19963;-66
2022/12/17 17:16:32;;;;;;;;;;;23.50;26.60;;;;;;5176806;27;19969;-66
2022/12/17 17:18:58;;;;;;;;;;;23.30;26.70;;;;;;5176771;27;19919;-66
2022/12/17 17:24:06;;;;;;;;;;;23.00;27.00;;;;;;5089939;28;20292;-65
2022/12/17 17:26:32;;;;;;;;;;;22.80;27.10;;;;;;5089882;28;19927;-65
2022/12/17 17:28:59;;;;;;;;;;;22.70;27.20;;;;;;5088831;28;19973;-65
2022/12/17 17:31:25;;;;;;;;;;;22.50;27.20;;;;;;5088544;28;19955;-66
2022/12/17 17:33:51;;;;;;;;;;;22.40;27.40;;;;;;5088494;28;19967;-65
2022/12/17 17:36:18;;;;;;;;;;;22.20;27.60;;;;;;5088763;28;19924;-68
2022/12/17 17:38:44;;;;;;;;;;;22.10;27.80;;;;;;5088660;28;19963;-65
2022/12/17 17:41:11;;;;;;;;;;;21.90;27.90;;;;;;5088362;28;19970;-66
2022/12/17 17:43:36;;;;;;;;;;;21.70;28.60;;;;;;5087608;28;19929;-65
2022/12/17 17:46:06;;;;;;;;;;;21.60;28.20;;;;;;5088462;28;19921;-65
2022/12/17 17:48:32;;;;;;;;;;;21.40;28.30;;;;;;5089471;28;20015;-65
2022/12/17 17:50:59;;;;;;;;;;;21.20;28.50;;;;;;5089349;28;20567;-66
2022/12/17 17:53:25;;;;;;;;;;;21.10;28.60;;;;;;5089414;28;20005;-69
2022/12/17 17:55:50;;;;;;;;;;;20.90;28.70;;;;;;5071240;28;19931;-65
2022/12/17 17:58:16;;;;;;;;;;;20.70;28.80;;;;;;5087999;28;19924;-66
2022/12/17 18:00:41;;;;;;;;;;;20.60;29.00;;;;;;5087925;28;19942;-65
2022/12/17 18:03:07;;;;;;;;;;;20.50;29.10;;;;;;5087996;28;19925;-65
2022/12/17 18:05:36;;;;;;;;;;;20.30;29.20;;;;;;5087886;28;20409;-65
2022/12/17 18:08:02;;;;;;;;;;;20.20;29.40;;;;;;5089099;28;19920;-65
2022/12/17 18:10:28;;;;;;;;;;;20.00;29.50;;;;;;5087783;28;19921;-65
2022/12/17 18:15:39;;;;;;;;;;;19.80;29.70;;;;;;5088772;28;20273;-66
2022/12/17 18:18:04;;;;;;;;;;;19.70;30.50;;;;;;5087673;28;19924;-66
2022/12/17 18:20:30;;;;;;;;;;;19.50;29.90;;;;;;5087844;28;19974;-66
2022/12/17 18:22:55;;;;;;;;;;;19.50;30.00;;;;;;5087264;28;19924;-67
2022/12/17 18:25:20;;;;;;;;;;;19.30;30.00;;;;;;5087408;28;19920;-69
2022/12/17 18:27:46;;;;;;;;;;;19.20;30.10;;;;;;5087732;28;20073;-65
2022/12/17 18:30:12;;;;;;;;;;;19.10;30.30;;;;;;5087719;28;20031;-66
2022/12/17 18:32:38;;;;;;;;;;;19.10;30.40;;;;;;5087373;28;19950;-66
2022/12/17 18:35:03;;;;;;;;;;;19.00;30.50;;;;;;5075574;28;19920;-66
2022/12/17 18:37:29;;;;;;;;;;;18.90;30.60;;;;;;5074130;28;19925;-66
2022/12/17 18:39:55;;;;;;;;;;;18.80;30.70;;;;;;5075230;28;19960;-66
2022/12/17 18:45:06;;;;;;;;;;;18.70;30.80;;;;;;5073725;28;20272;-66
2022/12/17 18:47:32;;;;;;;;;;;18.60;30.90;;;;;;5073915;28;19970;-66
2022/12/17 18:49:57;;;;;;;;;;;18.50;31.00;;;;;;5074796;28;20529;-65
2022/12/17 18:52:23;;;;;;;;;;;18.50;31.10;;;;;;5073528;28;19920;-66
2022/12/17 18:54:49;;;;;;;;;;;18.40;31.10;;;;;;5074987;28;19920;-65
2022/12/17 18:57:14;;;;;;;;;;;18.30;31.20;;;;;;5073571;28;20372;-66
2022/12/17 18:59:39;;;;;;;;;;;18.20;31.20;;;;;;5073677;28;19921;-65
2022/12/17 19:02:08;;;;;;;;;;;18.20;31.40;;;;;;5073204;28;19925;-66
2022/12/17 19:04:34;;;;;;;;;;;18.50;31.20;;;;;;5073291;28;19924;-65
2022/12/17 19:06:59;;;;;;;;;;;19.20;30.70;;;;;;5073480;28;19925;-66
2022/12/17 19:09:27;;;;;;;;;;;20.00;29.90;;;;;;5072846;28;19927;-66
2022/12/17 19:11:53;;;;;;;;;;;20.90;29.10;;;;;;5073334;28;20050;-66
2022/12/17 19:14:21;;;;;;;;;;;21.80;28.20;;;;;;5074461;28;20007;-66
2022/12/17 19:16:47;;;;;;;;;;;22.70;27.30;;;;;;5073363;28;20364;-65
2022/12/17 19:19:13;;;;;;;;;;;23.50;26.60;;;;;;5073031;28;19920;-66
2022/12/17 19:21:38;;;;;;;;;;;24.20;26.00;;;;;;5073024;28;20015;-66
2022/12/17 19:24:05;;;;;;;;;;;24.80;25.50;;;;;;5076291;28;20003;-66
2022/12/17 19:26:31;;;;;;;;;;;25.20;25.00;;;;;;5094410;28;19927;-66
2022/12/17 19:28:58;;;;;;;;;;;25.60;24.70;;;;;;5094434;28;19920;-66
2022/12/17 19:31:25;;;;;;;;;;;26.10;24.60;;;;;;5076501;28;19963;-66
2022/12/17 19:33:54;;;;;;;;;;;26.40;24.30;;;;;;5094199;28;19931;-65
2022/12/17 19:36:21;;;;;;;;;;;26.60;24.20;;;;;;5094173;28;19947;-66
2022/12/17 19:38:50;;;;;;;;;;;26.90;24.10;;;;;;5075897;28;19930;-66
2022/12/17 19:41:16;;;;;;;;;;;27.00;23.90;;;;;;5076293;28;20339;-66
2022/12/17 19:43:43;;;;;;;;;;;27.20;23.80;;;;;;5093882;28;19924;-68
2022/12/17 19:46:11;;;;;;;;;;;27.30;23.70;;;;;;5093083;28;20320;-66
2022/12/17 19:48:37;;;;;;;;;;;27.50;23.60;;;;;;5076029;28;20420;-66
2022/12/17 19:51:05;;;;;;;;;;;27.60;23.50;;;;;;5093931;28;19920;-66
2022/12/17 19:53:31;;;;;;;;;;;27.60;23.50;;;;;;5075944;28;19920;-66
2022/12/17 19:56:07;;;;;;;;;;;27.60;23.50;;;;;;5076028;28;19924;-66
2022/12/17 19:58:32;;;;;;;;;;;27.50;23.50;;;;;;5093588;28;19927;-66
2022/12/17 20:01:03;;;;;;;;;;;27.40;23.60;;;;;;5075840;28;19920;-66
2022/12/17 20:03:29;;;;;;;;;;;27.20;23.70;;;;;;5075330;28;19924;-67
2022/12/17 20:05:54;;;;;;;;;;;27.00;23.80;;;;;;5093638;28;20057;-67
2022/12/17 20:08:20;;;;;;;;;;;26.80;23.90;;;;;;5075718;28;20011;-69
2022/12/17 20:10:46;;;;;;;;;;;26.60;24.00;;;;;;5075366;28;19930;-69
2022/12/17 20:13:11;;;;;;;;;;;26.30;24.10;;;;;;5075558;28;19927;-66
2022/12/17 20:15:37;;;;;;;;;;;26.10;24.40;;;;;;5075273;28;20547;-66
2022/12/17 20:18:02;;;;;;;;;;;25.90;24.40;;;;;;5075483;28;19946;-66
2022/12/17 20:20:28;;;;;;;;;;;25.60;24.60;;;;;;5093322;28;20260;-66
2022/12/17 20:22:53;;;;;;;;;;;25.40;24.70;;;;;;5092948;28;19946;-66
2022/12/17 20:25:19;;;;;;;;;;;25.20;24.90;;;;;;5075109;28;20418;-66
2022/12/17 20:27:44;;;;;;;;;;;24.90;25.00;;;;;;5075038;28;19927;-66
2022/12/17 20:30:10;;;;;;;;;;;24.70;25.20;;;;;;5093083;28;19927;-66
2022/12/17 20:32:36;;;;;;;;;;;24.50;25.40;;;;;;5075327;28;20018;-66
2022/12/17 20:35:01;;;;;;;;;;;24.30;25.50;;;;;;5092977;28;19919;-66
2022/12/17 20:37:27;;;;;;;;;;;24.10;25.70;;;;;;5075166;28;20062;-66
2022/12/17 20:39:53;;;;;;;;;;;23.90;25.80;;;;;;5074808;28;19974;-66
2022/12/17 20:42:19;;;;;;;;;;;23.70;25.90;;;;;;5093067;28;19924;-66
2022/12/17 20:44:44;;;;;;;;;;;23.50;26.10;;;;;;5092875;28;19920;-66
2022/12/17 20:47:10;;;;;;;;;;;23.40;26.30;;;;;;5074724;28;19927;-66
2022/12/17 20:49:35;;;;;;;;;;;23.20;26.40;;;;;;5092688;28;19923;-66
2022/12/17 20:52:01;;;;;;;;;;;23.00;26.50;;;;;;5092787;28;19920;-66
2022/12/17 20:54:27;;;;;;;;;;;22.90;26.60;;;;;;5092745;28;20371;-65
2022/12/17 20:56:52;;;;;;;;;;;22.70;26.80;;;;;;5092432;28;19920;-66
2022/12/17 20:59:18;;;;;;;;;;;22.50;26.90;;;;;;5074498;28;19920;-65
2022/12/17 21:01:44;;;;;;;;;;;22.30;27.10;;;;;;5074722;28;19963;-66
2022/12/17 21:04:10;;;;;;;;;;;22.20;27.20;;;;;;5074477;28;20353;-66
2022/12/17 21:06:37;;;;;;;;;;;22.00;27.30;;;;;;5092511;28;19964;-66
2022/12/17 21:09:03;;;;;;;;;;;21.80;27.50;;;;;;5074850;28;19920;-66
2022/12/17 21:11:30;;;;;;;;;;;21.60;27.60;;;;;;5074373;28;19928;-66
2022/12/17 21:13:56;;;;;;;;;;;21.40;27.80;;;;;;5074443;28;19935;-66
2022/12/17 21:16:23;;;;;;;;;;;21.30;28.00;;;;;;5074244;28;19920;-65
2022/12/17 21:18:49;;;;;;;;;;;21.10;28.10;;;;;;5074688;28;19963;-66
2022/12/17 21:21:17;;;;;;;;;;;20.90;28.20;;;;;;5074252;28;19970;-65
2022/12/17 21:23:43;;;;;;;;;;;20.80;28.40;;;;;;5073891;28;19981;-66
2022/12/17 21:26:11;;;;;;;;;;;20.60;28.50;;;;;;5074294;28;19934;-66
2022/12/17 21:28:38;;;;;;;;;;;20.50;28.60;;;;;;5074310;28;19920;-65
2022/12/17 21:31:03;;;;;;;;;;;20.40;28.70;;;;;;5092378;28;19927;-66
2022/12/17 21:33:29;;;;;;;;;;;20.20;28.80;;;;;;5074213;28;19920;-66
2022/12/17 21:35:59;;;;;;;;;;;20.10;28.90;;;;;;5074086;28;19927;-66
2022/12/17 21:38:24;;;;;;;;;;;19.90;29.00;;;;;;5074541;28;19920;-65
2022/12/17 21:40:50;;;;;;;;;;;19.80;29.20;;;;;;5074211;28;19978;-65
2022/12/17 21:43:15;;;;;;;;;;;19.70;29.30;;;;;;5091510;28;19950;-66
2022/12/17 21:45:41;;;;;;;;;;;19.60;29.40;;;;;;5073965;28;19934;-66
2022/12/17 21:48:08;;;;;;;;;;;19.50;29.50;;;;;;5074164;28;19920;-66
2022/12/17 21:50:37;;;;;;;;;;;19.40;29.60;;;;;;5074018;28;20282;-66
2022/12/17 21:53:03;;;;;;;;;;;19.30;29.70;;;;;;5074372;28;20367;-69
2022/12/17 21:55:29;;;;;;;;;;;19.20;29.80;;;;;;5074065;28;20016;-69
2022/12/17 21:57:54;;;;;;;;;;;19.10;29.90;;;;;;5073857;28;19920;-66
2022/12/17 22:00:20;;;;;;;;;;;19.00;29.90;;;;;;5092150;28;19920;-66
2022/12/17 22:02:46;;;;;;;;;;;18.90;30.00;;;;;;5073930;28;20400;-68
2022/12/17 22:05:11;;;;;;;;;;;18.90;30.00;;;;;;5092132;28;19924;-66
2022/12/17 22:07:37;;;;;;;;;;;18.80;30.10;;;;;;5074202;28;20006;-66
2022/12/17 22:10:02;;;;;;;;;;;18.70;30.10;;;;;;5076365;28;19920;-66
2022/12/17 22:15:13;;;;;;;;;;;18.50;30.30;;;;;;5077783;28;19966;-66
2022/12/17 22:17:39;;;;;;;;;;;18.50;30.40;;;;;;5077800;28;19920;-65
2022/12/17 22:20:05;;;;;;;;;;;18.80;30.30;;;;;;5095709;28;19924;-68
2022/12/17 22:22:31;;;;;;;;;;;19.40;29.90;;;;;;5073915;28;19925;-66
2022/12/17 22:24:56;;;;;;;;;;;20.20;29.30;;;;;;5075459;28;20403;-69
2022/12/17 22:27:22;;;;;;;;;;;20.90;28.50;;;;;;5075380;28;19966;-66
2022/12/17 22:33:05;;;;;;;;;;;22.70;27.00;;;;;;5073673;28;19928;-66
2022/12/17 22:35:19;;;;;;;;;;;23.60;26.10;;;;;;5073817;28;19921;-66
2022/12/17 22:37:44;;;;;;;;;;;24.30;25.40;;;;;;5073804;28;19921;-65
2022/12/17 22:40:10;;;;;;;;;;;24.90;25.60;;;;;;5073714;28;19921;-66
2022/12/17 22:45:21;;;;;;;;;;;25.80;24.30;;;;;;5073577;28;19927;-66
2022/12/17 22:47:46;;;;;;;;;;;26.20;24.10;;;;;;5072564;28;20396;-66
2022/12/17 22:50:12;;;;;;;;;;;26.50;23.80;;;;;;5072409;28;20304;-66
2022/12/17 22:52:38;;;;;;;;;;;26.70;23.70;;;;;;5073452;28;19920;-66
2022/12/17 22:55:03;;;;;;;;;;;27.00;23.60;;;;;;5072117;28;20381;-65
2022/12/17 22:57:29;;;;;;;;;;;27.20;23.40;;;;;;5072291;28;19973;-67
2022/12/17 22:59:54;;;;;;;;;;;27.40;23.40;;;;;;5072181;28;20402;-67
2022/12/17 23:02:20;;;;;;;;;;;27.50;23.30;;;;;;5073490;28;19924;-67
2022/12/17 23:04:45;;;;;;;;;;;27.60;23.20;;;;;;5074569;28;19924;-67
2022/12/17 23:07:11;;;;;;;;;;;27.70;23.10;;;;;;5073377;28;19983;-67
2022/12/17 23:09:36;;;;;;;;;;;27.60;23.10;;;;;;5072403;28;19920;-67
2022/12/17 23:12:49;;;;;;;;;;;27.60;23.20;;;;;;5073178;28;19950;-67
2022/12/17 23:14:47;;;;;;;;;;;27.40;23.20;;;;;;5072884;28;20423;-67
2022/12/17 23:17:13;;;;;;;;;;;27.20;23.30;;;;;;5073485;28;19964;-69
2022/12/17 23:19:38;;;;;;;;;;;27.00;23.40;;;;;;5072875;28;19956;-67
2022/12/17 23:22:04;;;;;;;;;;;26.80;23.50;;;;;;5072968;28;19928;-66
2022/12/17 23:24:29;;;;;;;;;;;26.60;23.60;;;;;;5072696;28;19928;-67
2022/12/17 23:26:55;;;;;;;;;;;26.30;23.80;;;;;;5073225;28;19948;-67
2022/12/17 23:29:20;;;;;;;;;;;26.10;23.90;;;;;;5074125;28;20291;-67
2022/12/17 23:31:46;;;;;;;;;;;25.90;24.00;;;;;;5074045;28;19990;-66
2022/12/17 23:34:12;;;;;;;;;;;25.70;24.10;;;;;;5074133;28;20011;-67
2022/12/17 23:36:38;;;;;;;;;;;25.40;24.20;;;;;;5073968;28;19955;-67
2022/12/17 23:39:03;;;;;;;;;;;25.20;24.30;;;;;;5073003;28;20411;-67
2022/12/17 23:41:29;;;;;;;;;;;25.00;25.10;;;;;;5073879;28;19955;-67
2022/12/17 23:43:56;;;;;;;;;;;24.90;24.70;;;;;;5072537;28;19931;-71
2022/12/17 23:46:22;;;;;;;;;;;24.60;24.80;;;;;;5072547;28;19928;-70
2022/12/17 23:48:48;;;;;;;;;;;24.50;25.00;;;;;;5072451;28;19920;-70
2022/12/17 23:51:15;;;;;;;;;;;24.20;25.00;;;;;;5072793;28;20015;-67
2022/12/17 23:53:41;;;;;;;;;;;24.00;25.30;;;;;;5072433;28;19921;-67
2022/12/17 23:56:09;;;;;;;;;;;23.80;25.40;;;;;;5073590;28;20046;-67
2022/12/17 23:58:36;;;;;;;;;;;23.60;25.50;;;;;;5072159;28;19972;-67
